Airfield :







YOU CAN JOIN US ON...

 
LOGIN :

Register | Disclaimer

   EN    FR    IT 

 









Legend :    VFR   Marginal VFR   IFR   Intensive IFR   Very Intensive IFR
Visi :
Ceiling :
>= 8 km
>= 3000ft
5 to 8 km
1000 to 3000 ft
1500m to 5 km
500 to 1000 ft
800 to 1500m
200 to 500 ft
< 800m
< 200 ft
Symbols :   Thunderstorms  Fog  Heavy snow  Heavy precipitations  Wind > 20 kt






- Airport Elevation : 228 ft


KFSO - Franklin County State

CURRENT METAR :
  • 131635Z AUTO 21005KT 10SM CLR 27/02 A2986 RMK AO2 T02720020

EXPIRED METARs :
  • 131615Z AUTO 24003KT 10SM CLR 27/02 A2986 RMK AO2 T02680023
  • 131555Z AUTO 21003KT 10SM CLR 26/03 A2986 RMK AO2 T02610031
  • 131535Z AUTO 24006KT 10SM CLR 26/03 A2986 RMK AO2 T02580033
  • 131515Z AUTO 23004KT 10SM CLR 25/05 A2987 RMK AO2 T02500052
  • 131455Z AUTO 21004KT 10SM CLR 25/06 A2986 RMK AO2 T02510062
  • 131435Z AUTO 21004KT 10SM CLR 25/05 A2986 RMK AO2 T02460048
  • 131415Z AUTO 26004KT 10SM CLR 24/08 A2986 RMK AO2 T02400075
  • 131355Z AUTO 16008KT 10SM CLR 23/09 A2986 RMK AO2 T02340090

TAF N/A
KZBW FIR / North America



MET'MAP, your aeronautical weather chart ! - Copyright ORBIFLY December 2007 - Disclaimer

ORBIFLY MET'MAP TEAM :

Programming & Development : Alexandra Zaïnal
Concept & original design : Baudouin d'Aumeries
Assistance for programming : Marc-Olivier Méhu
Technical & hardware support : Manuel Goepfert

Contact : metmap@orbifly.com




SOURCES & CREDITS :

   NOAA